Time;durP1;ratioP1;P1;durP2;ratioP2;P2;SDS_P1;SDS_P2;PMS_P1;PMS_P2;Temp;Humidity;BMP_temperature;BMP_pressure;BME280_temperature;BME280_humidity;BME280_pressure;Samples;Min_cycle;Max_cycle;Signal;HPM_P1;HPM_P2
2021/06/08 00:02:24;;;;;;;11.70;10.45;;;18.30;99.90;;;;;;5142311;27;20837;-73
2021/06/08 00:04:52;;;;;;;12.02;10.73;;;18.40;99.90;;;;;;5142679;27;20789;-73
2021/06/08 00:07:18;;;;;;;13.95;11.70;;;18.30;99.90;;;;;;5143741;27;20508;-73
2021/06/08 00:09:45;;;;;;;12.00;10.65;;;18.10;99.90;;;;;;5143025;27;20418;-73
2021/06/08 00:12:11;;;;;;;12.45;10.95;;;17.90;99.90;;;;;;5143109;27;20596;-73
2021/06/08 00:14:37;;;;;;;10.88;9.77;;;17.90;99.90;;;;;;5142631;27;20517;-73
2021/06/08 00:17:04;;;;;;;10.80;9.68;;;18.00;99.90;;;;;;5142862;27;20457;-73
2021/06/08 00:19:30;;;;;;;11.77;10.50;;;18.10;99.90;;;;;;5143385;27;20426;-74
2021/06/08 00:21:58;;;;;;;11.70;9.10;;;18.20;99.90;;;;;;5141243;27;20445;-73
2021/06/08 00:24:25;;;;;;;9.95;8.63;;;18.20;99.90;;;;;;5142159;27;20446;-73
2021/06/08 00:26:51;;;;;;;11.80;9.15;;;18.20;99.90;;;;;;5141149;27;20845;-73
2021/06/08 00:29:17;;;;;;;12.15;10.85;;;18.30;99.90;;;;;;5141551;27;20461;-74
2021/06/08 00:31:44;;;;;;;10.93;9.05;;;18.30;99.90;;;;;;5141723;27;20517;-73
2021/06/08 00:34:10;;;;;;;14.23;11.40;;;18.20;99.90;;;;;;5141252;27;20575;-73
2021/06/08 00:36:37;;;;;;;11.90;9.27;;;18.20;99.90;;;;;;5143213;27;20517;-72
2021/06/08 00:39:05;;;;;;;10.55;8.85;;;18.20;99.90;;;;;;5140453;27;20582;-74
2021/06/08 00:41:33;;;;;;;13.13;9.57;;;18.30;99.90;;;;;;5141519;27;20465;-73
2021/06/08 00:44:02;;;;;;;10.70;9.60;;;18.30;99.90;;;;;;5140600;27;20790;-73
2021/06/08 00:46:29;;;;;;;9.30;8.35;;;18.30;99.90;;;;;;5140774;27;20694;-73
2021/06/08 00:48:55;;;;;;;10.75;9.65;;;18.30;99.90;;;;;;5140417;27;20415;-73
2021/06/08 00:51:21;;;;;;;11.65;9.40;;;18.30;99.90;;;;;;5140727;27;20469;-73
2021/06/08 00:53:49;;;;;;;12.05;9.90;;;18.30;99.90;;;;;;5140592;27;20530;-72
2021/06/08 00:56:17;;;;;;;12.30;10.30;;;18.20;99.90;;;;;;5138833;27;20437;-74
2021/06/08 00:58:45;;;;;;;11.50;9.65;;;18.10;99.90;;;;;;5137446;27;20834;-71
2021/06/08 01:01:11;;;;;;;11.90;9.65;;;18.10;99.90;;;;;;5137991;27;20426;-72
2021/06/08 01:03:38;;;;;;;9.90;8.90;;;18.10;99.90;;;;;;5138252;27;20425;-72
2021/06/08 01:06:04;;;;;;;9.85;8.73;;;18.00;99.90;;;;;;5135965;27;20446;-72
2021/06/08 01:08:31;;;;;;;11.90;9.30;;;18.00;99.90;;;;;;5136162;27;20876;-72
2021/06/08 01:10:57;;;;;;;10.93;9.25;;;18.00;99.90;;;;;;5136413;27;20450;-73
2021/06/08 01:13:27;;;;;;;12.15;8.75;;;18.00;99.90;;;;;;5136288;27;20548;-71
2021/06/08 01:15:53;;;;;;;11.95;9.50;;;18.10;99.90;;;;;;5136627;27;20505;-71
2021/06/08 01:18:19;;;;;;;10.68;9.38;;;18.20;99.90;;;;;;5136655;27;21002;-71
2021/06/08 01:20:46;;;;;;;10.47;8.83;;;18.20;99.90;;;;;;5137340;27;20800;-71
2021/06/08 01:23:14;;;;;;;15.50;9.38;;;18.20;99.90;;;;;;5136003;27;20509;-71
2021/06/08 01:25:40;;;;;;;12.20;10.03;;;18.20;99.90;;;;;;5138992;27;20495;-72
2021/06/08 01:28:07;;;;;;;11.80;9.98;;;18.20;99.90;;;;;;5139074;27;20462;-71
2021/06/08 01:30:33;;;;;;;11.15;9.88;;;18.20;99.90;;;;;;5138890;27;20442;-71
2021/06/08 01:33:01;;;;;;;12.30;10.73;;;18.10;99.90;;;;;;5138961;27;20422;-72
2021/06/08 01:35:29;;;;;;;11.73;9.53;;;18.10;99.90;;;;;;5137128;27;20857;-71
2021/06/08 01:37:56;;;;;;;11.02;9.80;;;18.00;99.90;;;;;;5137303;27;20514;-71
2021/06/08 01:40:24;;;;;;;11.05;9.85;;;18.00;99.90;;;;;;5136918;27;20492;-71
2021/06/08 01:42:51;;;;;;;11.23;9.98;;;18.20;99.90;;;;;;5138242;27;20479;-72
2021/06/08 01:45:18;;;;;;;11.10;9.90;;;18.20;99.90;;;;;;5137370;27;20494;-71
2021/06/08 01:47:44;;;;;;;13.15;10.13;;;18.20;99.90;;;;;;5137470;27;20789;-72
2021/06/08 01:50:11;;;;;;;10.60;9.07;;;18.20;99.90;;;;;;5136934;27;20485;-71
2021/06/08 01:52:43;;;;;;;10.33;9.17;;;18.20;99.90;;;;;;5137661;27;20484;-72
2021/06/08 01:55:15;;;;;;;11.90;9.60;;;18.10;99.90;;;;;;5137537;27;20465;-71
2021/06/08 01:57:47;;;;;;;12.30;11.00;;;17.90;99.90;;;;;;5136954;27;21070;-71
2021/06/08 02:00:17;;;;;;;14.77;11.17;;;17.80;99.90;;;;;;5138346;27;20442;-72
2021/06/08 02:02:58;;;;;;;12.63;10.50;;;17.80;99.90;;;;;;5137078;27;20529;-72
2021/06/08 02:05:32;;;;;;;12.48;10.90;;;17.80;99.90;;;;;;5136264;27;20833;-71
2021/06/08 02:08:06;;;;;;;11.90;10.32;;;17.80;99.90;;;;;;5136055;27;20471;-71
2021/06/08 02:10:49;;;;;;;11.65;9.80;;;17.80;99.90;;;;;;5136819;27;20415;-71
2021/06/08 02:13:32;;;;;;;11.70;10.50;;;17.90;99.90;;;;;;5136692;27;20407;-71
2021/06/08 02:16:04;;;;;;;13.93;10.25;;;18.00;99.90;;;;;;5136893;27;20426;-71
2021/06/08 02:18:34;;;;;;;11.25;9.95;;;18.10;99.90;;;;;;5136340;27;20516;-71
2021/06/08 02:21:01;;;;;;;11.73;10.40;;;18.10;99.90;;;;;;5135566;27;20729;-71
2021/06/08 02:23:29;;;;;;;11.27;9.98;;;18.20;99.90;;;;;;5136309;27;20510;-71
2021/06/08 02:25:58;;;;;;;13.18;11.77;;;18.10;99.90;;;;;;5136811;27;20446;-72
2021/06/08 02:28:31;;;;;;;12.18;10.38;;;18.10;99.90;;;;;;5136658;27;20694;-71
2021/06/08 02:31:02;;;;;;;13.48;11.32;;;18.00;99.90;;;;;;5136366;27;20863;-71
2021/06/08 02:33:29;;;;;;;13.82;10.98;;;18.00;99.90;;;;;;5136372;27;20528;-71
2021/06/08 02:35:57;;;;;;;13.70;12.15;;;17.90;99.90;;;;;;5137124;27;20517;-72
2021/06/08 02:38:25;;;;;;;15.63;11.50;;;17.80;99.90;;;;;;5137559;27;20517;-72
2021/06/08 02:40:52;;;;;;;12.27;10.98;;;17.80;99.90;;;;;;5136945;27;20453;-72
2021/06/08 02:43:22;;;;;;;14.63;11.13;;;17.80;99.90;;;;;;5136604;27;20444;-71
2021/06/08 02:45:52;;;;;;;12.93;10.90;;;17.90;99.90;;;;;;5136922;27;20617;-72
2021/06/08 02:48:21;;;;;;;15.90;11.50;;;17.90;99.90;;;;;;5136507;27;20502;-72
2021/06/08 02:50:48;;;;;;;11.73;10.10;;;18.00;99.90;;;;;;5137387;27;20912;-73
2021/06/08 02:53:16;;;;;;;12.55;10.35;;;18.10;99.90;;;;;;5137383;27;20505;-72
2021/06/08 02:55:44;;;;;;;14.27;10.50;;;18.20;99.90;;;;;;5136864;27;20430;-72
2021/06/08 02:58:12;;;;;;;12.13;10.30;;;18.20;99.90;;;;;;5136763;27;20749;-72
2021/06/08 03:00:39;;;;;;;13.63;10.75;;;18.20;99.90;;;;;;5136793;27;20497;-72
2021/06/08 03:03:09;;;;;;;12.98;10.57;;;18.20;99.90;;;;;;5136668;27;20429;-72
2021/06/08 03:05:39;;;;;;;13.23;10.68;;;18.20;99.90;;;;;;5137174;27;20418;-73
2021/06/08 03:08:17;;;;;;;13.02;11.30;;;18.10;99.90;;;;;;5137215;27;20433;-72
2021/06/08 03:10:45;;;;;;;11.95;10.75;;;18.20;99.90;;;;;;5137443;27;20457;-72
2021/06/08 03:13:14;;;;;;;11.95;9.50;;;18.10;99.90;;;;;;5136951;27;20473;-73
2021/06/08 03:15:44;;;;;;;13.45;11.60;;;18.10;99.90;;;;;;5134884;27;20526;-69
2021/06/08 03:18:15;;;;;;;15.50;11.13;;;18.10;99.90;;;;;;5135171;27;20469;-73
2021/06/08 03:20:46;;;;;;;11.05;9.75;;;17.90;99.90;;;;;;5134615;27;20501;-72
2021/06/08 03:23:14;;;;;;;10.55;9.43;;;17.90;99.90;;;;;;5132722;27;20570;-73
2021/06/08 03:25:43;;;;;;;12.50;11.20;;;17.90;99.90;;;;;;5134573;27;20450;-71
2021/06/08 03:28:12;;;;;;;12.70;10.85;;;17.90;99.90;;;;;;5134986;27;20458;-71
2021/06/08 03:30:39;;;;;;;12.00;10.73;;;17.90;99.90;;;;;;5136129;27;20878;-72
2021/06/08 03:33:06;;;;;;;11.32;9.82;;;17.90;99.90;;;;;;5135719;27;20843;-74
2021/06/08 03:35:35;;;;;;;12.25;10.93;;;17.90;99.90;;;;;;5134588;27;20757;-72
2021/06/08 03:38:02;;;;;;;13.32;11.52;;;18.00;99.90;;;;;;5135141;27;20454;-72
2021/06/08 03:40:29;;;;;;;12.68;11.23;;;18.00;99.90;;;;;;5135274;27;20880;-71
2021/06/08 03:42:57;;;;;;;13.15;11.15;;;18.00;99.90;;;;;;5135031;27;20462;-73
2021/06/08 03:45:24;;;;;;;13.80;11.70;;;18.00;99.90;;;;;;5134508;28;20501;-72
2021/06/08 03:47:54;;;;;;;12.10;10.80;;;18.00;99.90;;;;;;5136292;28;20528;-73
2021/06/08 03:50:21;;;;;;;13.32;10.70;;;18.00;99.90;;;;;;5135618;28;20829;-73
2021/06/08 03:52:50;;;;;;;14.32;11.45;;;17.90;99.90;;;;;;5135518;28;20472;-74
2021/06/08 03:55:19;;;;;;;13.40;11.38;;;17.90;99.90;;;;;;5135726;28;20513;-72
2021/06/08 03:57:50;;;;;;;13.65;11.38;;;17.90;99.90;;;;;;5134263;28;20833;-74
2021/06/08 04:00:17;;;;;;;13.80;11.55;;;18.00;99.90;;;;;;5134687;28;20421;-72
2021/06/08 04:02:44;;;;;;;12.60;11.27;;;18.00;99.90;;;;;;5133568;28;20699;-73
2021/06/08 04:05:12;;;;;;;13.05;11.20;;;18.00;99.90;;;;;;5134193;28;20501;-73
2021/06/08 04:07:40;;;;;;;14.50;10.90;;;18.00;99.90;;;;;;5134378;28;20514;-73
2021/06/08 04:10:14;;;;;;;11.48;10.20;;;18.10;99.90;;;;;;5135524;28;20499;-72
2021/06/08 04:12:40;;;;;;;13.55;10.70;;;18.00;99.90;;;;;;5135448;28;20853;-73
2021/06/08 04:15:08;;;;;;;14.25;10.52;;;18.00;99.90;;;;;;5136464;28;20822;-73
2021/06/08 04:17:36;;;;;;;12.20;10.30;;;18.10;99.90;;;;;;5134702;28;20462;-73
2021/06/08 04:20:05;;;;;;;11.80;10.60;;;18.10;99.90;;;;;;5136069;28;20529;-74
2021/06/08 04:22:33;;;;;;;12.90;11.60;;;18.10;99.90;;;;;;5134066;28;20525;-73
2021/06/08 04:25:01;;;;;;;10.35;9.35;;;18.10;99.90;;;;;;5136018;28;20458;-74
2021/06/08 04:27:30;;;;;;;12.82;10.52;;;18.20;99.90;;;;;;5135403;28;20874;-74
2021/06/08 04:29:57;;;;;;;12.07;10.88;;;18.20;99.90;;;;;;5134404;28;20415;-73
2021/06/08 04:32:24;;;;;;;13.25;10.88;;;18.10;99.90;;;;;;5135781;27;20515;-73
2021/06/08 04:34:52;;;;;;;11.67;10.47;;;18.10;99.90;;;;;;5137587;27;20549;-74
2021/06/08 04:37:19;;;;;;;13.47;10.60;;;18.10;99.90;;;;;;5136295;27;20430;-73
2021/06/08 04:39:46;;;;;;;14.40;11.90;;;18.10;99.90;;;;;;5135893;27;20418;-73
2021/06/08 04:42:15;;;;;;;15.27;12.10;;;18.10;99.90;;;;;;5136317;27;20426;-73
2021/06/08 04:44:43;;;;;;;11.90;10.10;;;18.20;99.90;;;;;;5137510;27;20422;-73
2021/06/08 04:47:11;;;;;;;14.55;11.23;;;18.10;99.90;;;;;;5138431;27;20464;-73
2021/06/08 04:49:37;;;;;;;12.57;10.73;;;18.20;99.90;;;;;;5138015;27;20442;-74
2021/06/08 04:52:05;;;;;;;13.87;10.87;;;18.10;99.90;;;;;;5137970;27;20528;-73
2021/06/08 04:54:31;;;;;;;10.45;8.73;;;18.10;99.90;;;;;;5138393;27;20462;-71
2021/06/08 04:56:58;;;;;;;11.43;9.75;;;18.10;99.90;;;;;;5138409;27;20483;-72
2021/06/08 04:59:32;;;;;;;13.73;10.63;;;18.10;99.90;;;;;;5137617;27;20469;-72
2021/06/08 05:02:02;;;;;;;12.73;10.93;;;18.20;99.90;;;;;;5138880;27;20472;-72
2021/06/08 05:04:31;;;;;;;13.45;11.85;;;18.30;99.90;;;;;;5138978;27;20487;-72
2021/06/08 05:07:03;;;;;;;12.98;10.40;;;18.30;99.90;;;;;;5138770;27;20885;-73
2021/06/08 05:09:33;;;;;;;10.20;9.00;;;18.20;99.90;;;;;;5138537;27;20414;-72
2021/06/08 05:12:00;;;;;;;13.15;10.90;;;18.30;99.90;;;;;;5137843;27;20431;-71
2021/06/08 05:14:29;;;;;;;12.32;10.60;;;18.40;99.90;;;;;;5138102;27;20427;-72
2021/06/08 05:16:57;;;;;;;12.30;11.00;;;18.40;99.90;;;;;;5138456;27;20568;-72
2021/06/08 05:19:26;;;;;;;11.85;10.15;;;18.40;99.90;;;;;;5137180;27;20410;-70
2021/06/08 05:21:53;;;;;;;11.75;10.25;;;18.50;99.90;;;;;;5135668;27;20439;-71
2021/06/08 05:24:22;;;;;;;12.02;10.73;;;18.40;99.90;;;;;;5137259;27;20414;-71
2021/06/08 05:26:50;;;;;;;14.38;11.50;;;18.40;99.90;;;;;;5137230;27;20457;-71
2021/06/08 05:29:18;;;;;;;10.93;9.75;;;18.40;99.90;;;;;;5137303;27;20826;-71
2021/06/08 05:31:45;;;;;;;10.93;9.50;;;18.40;99.90;;;;;;5139403;27;20519;-71
2021/06/08 05:34:13;;;;;;;10.98;9.85;;;18.50;99.90;;;;;;5158347;27;20401;-71
2021/06/08 05:36:41;;;;;;;11.32;10.13;;;18.50;99.90;;;;;;5157583;27;20636;-71
2021/06/08 05:39:09;;;;;;;12.57;10.67;;;18.60;99.90;;;;;;5156422;27;20420;-72
2021/06/08 05:41:36;;;;;;;12.85;10.98;;;18.60;99.90;;;;;;5157726;27;20505;-71
2021/06/08 05:44:03;;;;;;;12.35;9.85;;;18.50;99.90;;;;;;5156636;27;20847;-71
2021/06/08 05:46:33;;;;;;;10.88;9.70;;;18.50;99.90;;;;;;5157824;27;20456;-71
2021/06/08 05:49:00;;;;;;;10.60;9.47;;;18.50;99.90;;;;;;5157400;27;20838;-71
2021/06/08 05:51:30;;;;;;;12.00;9.95;;;18.50;99.90;;;;;;5157170;27;20523;-71
2021/06/08 05:54:00;;;;;;;13.37;11.30;;;18.60;99.90;;;;;;5157146;27;20507;-71
2021/06/08 05:56:31;;;;;;;11.43;10.32;;;18.40;99.90;;;;;;5156250;27;20527;-71
2021/06/08 05:58:57;;;;;;;13.40;11.13;;;18.40;99.90;;;;;;5154153;27;20413;-72
2021/06/08 06:01:26;;;;;;;12.95;11.52;;;18.50;99.90;;;;;;5154982;27;20421;-72
2021/06/08 06:03:53;;;;;;;12.47;11.17;;;18.50;99.90;;;;;;5156367;27;20417;-73
2021/06/08 06:06:20;;;;;;;12.07;10.80;;;18.50;99.90;;;;;;5156651;27;20934;-72
2021/06/08 06:08:46;;;;;;;13.40;11.40;;;18.50;99.90;;;;;;5156993;27;20470;-73
2021/06/08 06:11:15;;;;;;;12.23;10.93;;;18.50;99.90;;;;;;5156841;27;20464;-72
2021/06/08 06:13:47;;;;;;;13.32;11.93;;;18.50;99.90;;;;;;5146176;27;20418;-73
2021/06/08 06:16:16;;;;;;;11.70;10.50;;;18.60;99.90;;;;;;5135215;27;20494;-73
2021/06/08 06:18:44;;;;;;;13.18;11.77;;;18.60;99.90;;;;;;5123210;27;20561;-72
2021/06/08 06:21:11;;;;;;;12.52;11.23;;;18.60;99.90;;;;;;5133735;27;20426;-73
2021/06/08 06:23:38;;;;;;;12.93;11.15;;;18.60;99.90;;;;;;5131692;27;20696;-73
2021/06/08 06:26:05;;;;;;;14.00;11.30;;;18.70;99.90;;;;;;5114382;28;20948;-74
2021/06/08 06:28:34;;;;;;;12.27;10.35;;;18.70;99.90;;;;;;5114915;27;20560;-73
2021/06/08 06:31:01;;;;;;;14.63;11.25;;;18.80;99.90;;;;;;5135031;27;20469;-75
2021/06/08 06:33:28;;;;;;;12.90;11.15;;;18.80;99.90;;;;;;5116939;27;20517;-72
2021/06/08 06:35:57;;;;;;;12.07;10.10;;;18.70;99.90;;;;;;5125441;27;20424;-71
2021/06/08 06:38:24;;;;;;;12.70;11.35;;;18.80;99.90;;;;;;5119120;27;20419;-71
2021/06/08 06:40:52;;;;;;;11.88;10.43;;;18.90;99.90;;;;;;5125626;27;20423;-71
2021/06/08 06:43:23;;;;;;;12.48;11.18;;;18.80;99.90;;;;;;5128116;27;20726;-73
2021/06/08 06:45:52;;;;;;;12.55;10.05;;;18.90;99.90;;;;;;5122238;27;20415;-72
2021/06/08 06:48:19;;;;;;;12.03;10.83;;;19.00;99.90;;;;;;5123720;27;20517;-72
2021/06/08 06:50:48;;;;;;;11.70;10.20;;;19.00;99.90;;;;;;5124748;27;20515;-73
2021/06/08 06:53:17;;;;;;;11.50;10.27;;;19.10;99.90;;;;;;5112951;28;20439;-72
2021/06/08 06:55:47;;;;;;;13.45;10.48;;;19.00;99.90;;;;;;5114516;27;20469;-72
2021/06/08 06:58:16;;;;;;;12.88;11.45;;;19.00;99.90;;;;;;5115943;28;20431;-72
2021/06/08 07:00:43;;;;;;;14.45;11.10;;;19.10;99.90;;;;;;5122011;27;20561;-71
2021/06/08 07:03:13;;;;;;;12.33;10.53;;;19.10;99.90;;;;;;5132074;27;20881;-73
2021/06/08 07:05:40;;;;;;;13.05;10.45;;;19.10;99.90;;;;;;5133754;27;20829;-70
2021/06/08 07:08:07;;;;;;;14.32;10.32;;;19.10;99.90;;;;;;5131011;27;20466;-70
2021/06/08 07:10:35;;;;;;;15.25;12.10;;;19.20;99.90;;;;;;5123049;27;20418;-69
2021/06/08 07:13:05;;;;;;;14.03;10.97;;;19.10;99.90;;;;;;5132872;27;20726;-72
2021/06/08 07:15:32;;;;;;;12.20;10.80;;;19.10;99.90;;;;;;5129298;27;20438;-72
2021/06/08 07:18:19;;;;;;;13.80;10.73;;;19.20;99.90;;;;;;5120019;27;20509;-69
2021/06/08 07:20:48;;;;;;;13.63;11.15;;;19.00;99.90;;;;;;5115079;27;20492;-70
2021/06/08 07:23:18;;;;;;;15.10;10.73;;;19.20;99.90;;;;;;5111939;28;20421;-71
2021/06/08 07:25:44;;;;;;;15.23;11.88;;;19.20;99.90;;;;;;5118094;27;20476;-71
2021/06/08 07:28:12;;;;;;;13.88;11.82;;;19.30;99.90;;;;;;5135107;27;20450;-69
2021/06/08 07:30:43;;;;;;;14.00;10.77;;;19.40;99.90;;;;;;5116834;27;20436;-70
2021/06/08 07:33:12;;;;;;;13.63;11.70;;;19.50;99.90;;;;;;5116010;27;20432;-71
2021/06/08 07:35:51;;;;;;;12.75;11.05;;;19.50;99.90;;;;;;5133944;27;20431;-70
2021/06/08 07:38:20;;;;;;;14.23;11.88;;;19.40;99.90;;;;;;5119405;27;20495;-69
2021/06/08 07:40:55;;;;;;;14.63;12.05;;;19.50;99.90;;;;;;5130638;27;20471;-69
2021/06/08 07:43:24;;;;;;;13.45;11.52;;;19.50;99.90;;;;;;5119324;27;20433;-70
2021/06/08 07:45:51;;;;;;;12.40;10.73;;;19.50;99.90;;;;;;5115423;28;20496;-68
2021/06/08 07:48:20;;;;;;;12.85;11.55;;;19.50;99.90;;;;;;5122832;28;20711;-69
2021/06/08 07:50:50;;;;;;;16.40;11.77;;;19.40;99.90;;;;;;5128611;28;20886;-68
2021/06/08 07:53:17;;;;;;;15.82;12.55;;;19.30;99.90;;;;;;5127735;28;20427;-70
2021/06/08 07:55:45;;;;;;;14.07;11.05;;;19.20;99.90;;;;;;5120431;28;20424;-70
2021/06/08 07:58:12;;;;;;;18.08;12.30;;;19.30;99.90;;;;;;5113257;28;20428;-71
2021/06/08 08:00:41;;;;;;;13.20;11.63;;;19.40;99.90;;;;;;5112702;28;20424;-72
2021/06/08 08:03:27;;;;;;;11.82;10.60;;;19.40;99.90;;;;;;5130954;28;20567;-71
2021/06/08 08:05:58;;;;;;;13.00;11.60;;;19.40;99.90;;;;;;5115731;28;20462;-72
2021/06/08 08:08:25;;;;;;;12.90;10.60;;;19.40;99.90;;;;;;5128683;27;20451;-72
2021/06/08 08:10:52;;;;;;;13.02;11.70;;;19.40;99.90;;;;;;5130235;27;20449;-72
2021/06/08 08:13:22;;;;;;;14.05;11.68;;;19.50;99.90;;;;;;5137437;27;20508;-71
2021/06/08 08:15:51;;;;;;;13.27;11.00;;;19.50;99.90;;;;;;5117970;27;20547;-72
2021/06/08 08:18:18;;;;;;;12.35;11.05;;;19.40;99.90;;;;;;5118222;27;20427;-71
2021/06/08 08:20:48;;;;;;;13.93;11.65;;;19.40;99.90;;;;;;5130918;27;21001;-71
2021/06/08 08:23:17;;;;;;;13.77;12.40;;;19.40;99.90;;;;;;5133817;27;20725;-70
2021/06/08 08:25:44;;;;;;;12.70;11.40;;;19.50;99.90;;;;;;5135522;27;20411;-72
2021/06/08 08:28:12;;;;;;;13.00;11.60;;;19.50;99.90;;;;;;5135400;27;20815;-71
2021/06/08 08:30:38;;;;;;;15.63;12.95;;;19.50;99.90;;;;;;5132457;27;20421;-72
2021/06/08 08:33:05;;;;;;;12.57;10.80;;;19.60;99.90;;;;;;5148043;27;20867;-71
2021/06/08 08:35:32;;;;;;;14.13;12.27;;;19.50;99.90;;;;;;5155512;27;20421;-72
2021/06/08 08:37:59;;;;;;;12.25;10.95;;;19.50;99.90;;;;;;5156918;27;20513;-72
2021/06/08 08:45:56;;;;;;;15.18;13.57;;;19.60;99.90;;;;;;5157882;27;20416;-72
2021/06/08 08:48:23;;;;;;;14.57;12.68;;;19.60;99.90;;;;;;5145946;27;20846;-71
2021/06/08 08:50:50;;;;;;;20.67;15.25;;;19.50;99.90;;;;;;5137879;27;20458;-72
2021/06/08 08:53:19;;;;;;;17.45;13.38;;;19.60;99.90;;;;;;5137174;27;20410;-72
2021/06/08 08:55:47;;;;;;;14.75;12.18;;;19.70;99.90;;;;;;5138163;27;20442;-72
2021/06/08 08:58:15;;;;;;;14.23;12.73;;;19.80;99.90;;;;;;5138074;27;20807;-72
2021/06/08 09:00:42;;;;;;;12.98;11.57;;;19.90;99.90;;;;;;5137996;27;20419;-71
2021/06/08 09:03:11;;;;;;;15.70;12.07;;;20.00;99.90;;;;;;5137516;27;20530;-71
2021/06/08 09:05:38;;;;;;;15.13;13.63;;;20.10;99.90;;;;;;5136086;27;20792;-70
2021/06/08 09:08:07;;;;;;;13.32;11.80;;;20.00;99.90;;;;;;5136255;27;20432;-71
2021/06/08 09:10:34;;;;;;;14.43;12.60;;;20.00;99.90;;;;;;5136086;27;20438;-71
2021/06/08 09:13:02;;;;;;;14.60;13.10;;;20.20;99.90;;;;;;5136052;27;20494;-70
2021/06/08 09:15:29;;;;;;;13.63;12.23;;;20.20;99.90;;;;;;5136520;27;20430;-72
2021/06/08 09:17:56;;;;;;;13.68;12.38;;;20.40;99.90;;;;;;5134991;27;20429;-71
2021/06/08 09:20:23;;;;;;;15.32;12.98;;;20.50;99.90;;;;;;5135104;27;20414;-72
2021/06/08 09:22:53;;;;;;;13.73;12.32;;;20.70;99.90;;;;;;5133324;27;20924;-71
2021/06/08 09:25:42;;;;;;;13.50;12.10;;;21.00;99.90;;;;;;5133828;27;20403;-72
2021/06/08 09:28:25;;;;;;;14.25;12.68;;;21.20;99.90;;;;;;5122762;27;20731;-72
2021/06/08 09:30:59;;;;;;;13.23;12.02;;;21.50;99.90;;;;;;5133165;27;20419;-72
2021/06/08 09:33:27;;;;;;;13.35;12.15;;;21.70;99.90;;;;;;5132370;27;20449;-71
2021/06/08 09:35:57;;;;;;;17.45;15.52;;;21.90;99.90;;;;;;5133198;27;20435;-72
2021/06/08 09:38:43;;;;;;;13.63;12.15;;;22.00;99.90;;;;;;5133016;27;20482;-70
2021/06/08 09:41:18;;;;;;;50.35;19.75;;;21.90;99.90;;;;;;5132030;27;20680;-73
2021/06/08 09:43:50;;;;;;;13.52;11.95;;;22.00;99.90;;;;;;5132265;27;20454;-72
2021/06/08 09:46:17;;;;;;;13.07;11.67;;;22.10;99.90;;;;;;5131783;27;20521;-72
2021/06/08 09:48:51;;;;;;;13.73;12.43;;;21.70;99.90;;;;;;5133228;27;20647;-71
2021/06/08 09:51:17;;;;;;;13.00;11.70;;;21.50;99.90;;;;;;5132872;27;20423;-71
2021/06/08 09:53:44;;;;;;;15.48;14.05;;;21.50;99.90;;;;;;5131825;27;20450;-73
2021/06/08 09:56:10;;;;;;;13.45;12.07;;;21.60;99.90;;;;;;5130164;27;20552;-72
2021/06/08 09:58:38;;;;;;;13.50;12.07;;;21.80;99.90;;;;;;5133105;27;20418;-73
2021/06/08 10:01:10;;;;;;;13.90;12.43;;;21.90;99.90;;;;;;5133247;27;20415;-72
2021/06/08 10:03:38;;;;;;;13.77;12.48;;;22.20;99.90;;;;;;5134790;27;20454;-71
2021/06/08 10:06:06;;;;;;;14.10;12.32;;;22.30;99.90;;;;;;5132801;27;20442;-73
2021/06/08 10:08:32;;;;;;;13.95;12.55;;;22.20;99.90;;;;;;5132825;27;20455;-70
2021/06/08 10:11:01;;;;;;;13.57;12.23;;;22.10;99.90;;;;;;5133360;27;20441;-71
2021/06/08 10:13:28;;;;;;;13.43;12.13;;;22.10;99.90;;;;;;5133575;27;20418;-71
2021/06/08 10:15:58;;;;;;;12.43;11.25;;;22.20;99.90;;;;;;5132448;27;20437;-72
2021/06/08 10:18:26;;;;;;;13.68;12.27;;;22.40;99.90;;;;;;5132404;27;20430;-72
2021/06/08 10:20:54;;;;;;;13.60;12.20;;;22.50;99.90;;;;;;5134756;27;20575;-71
2021/06/08 10:23:23;;;;;;;13.25;11.77;;;22.40;99.90;;;;;;5132700;27;20415;-72
2021/06/08 10:25:52;;;;;;;12.95;11.65;;;22.60;99.90;;;;;;5135210;27;20678;-71
2021/06/08 10:28:19;;;;;;;12.30;11.10;;;22.60;99.90;;;;;;5135007;27;20486;-71
2021/06/08 10:30:47;;;;;;;12.60;11.30;;;22.70;99.90;;;;;;5135106;27;20489;-72
2021/06/08 10:33:14;;;;;;;14.25;12.95;;;22.80;99.90;;;;;;5142885;27;20427;-71
2021/06/08 10:35:44;;;;;;;13.00;11.70;;;23.00;99.90;;;;;;5152133;27;20787;-72
2021/06/08 10:38:12;;;;;;;13.13;11.88;;;23.30;99.90;;;;;;5134133;27;21039;-73
2021/06/08 10:40:41;;;;;;;12.93;11.73;;;23.40;99.90;;;;;;5131089;27;20518;-71
2021/06/08 10:43:15;;;;;;;12.73;11.43;;;23.40;99.90;;;;;;5132381;27;20654;-70
2021/06/08 10:45:42;;;;;;;12.75;11.45;;;23.20;99.90;;;;;;5133245;27;20411;-71
2021/06/08 10:48:14;;;;;;;13.18;11.77;;;23.10;99.90;;;;;;5133169;27;20481;-71
2021/06/08 10:50:45;;;;;;;11.27;10.27;;;22.90;99.90;;;;;;5132463;27;20414;-71
2021/06/08 10:53:27;;;;;;;12.35;11.23;;;22.90;99.90;;;;;;5132422;27;20509;-71
2021/06/08 10:55:54;;;;;;;12.95;11.75;;;22.80;99.90;;;;;;5131464;27;20462;-71
2021/06/08 10:58:43;;;;;;;13.50;12.23;;;22.90;99.90;;;;;;5132521;27;20501;-71
2021/06/08 11:01:43;;;;;;;10.90;9.82;;;23.10;99.90;;;;;;5134239;27;20422;-72
2021/06/08 11:04:12;;;;;;;11.95;10.82;;;23.20;99.90;;;;;;5134203;27;20457;-70
2021/06/08 11:06:50;;;;;;;13.15;11.90;;;23.40;99.90;;;;;;5136781;27;20773;-71
2021/06/08 11:09:18;;;;;;;12.27;10.95;;;23.40;99.90;;;;;;5132968;27;20455;-71
2021/06/08 11:11:47;;;;;;;12.43;11.32;;;23.60;99.90;;;;;;5135239;27;20426;-71
2021/06/08 11:15:00;;;;;;;12.10;11.02;;;23.70;99.90;;;;;;5133783;27;20489;-72
2021/06/08 11:17:31;;;;;;;12.80;11.60;;;23.80;99.90;;;;;;5129248;27;20481;-71
2021/06/08 11:19:59;;;;;;;14.68;12.05;;;24.00;99.90;;;;;;5132322;27;20505;-71
2021/06/08 11:22:50;;;;;;;11.77;10.68;;;23.90;99.90;;;;;;5131674;27;20472;-72
2021/06/08 11:25:38;;;;;;;12.77;11.57;;;24.00;99.90;;;;;;5132319;27;20406;-71
2021/06/08 11:28:07;;;;;;;11.48;10.32;;;23.70;99.90;;;;;;5129585;27;20418;-72
2021/06/08 11:30:35;;;;;;;13.00;11.80;;;23.70;99.90;;;;;;5130151;27;20702;-72
2021/06/08 11:33:06;;;;;;;12.90;11.70;;;23.70;99.90;;;;;;5130545;27;20632;-73
2021/06/08 11:35:39;;;;;;;12.03;11.00;;;23.70;99.90;;;;;;5130587;27;20732;-72
2021/06/08 11:38:10;;;;;;;13.05;11.95;;;23.70;99.90;;;;;;5130240;27;20440;-72
2021/06/08 11:40:58;;;;;;;12.98;11.68;;;23.50;99.90;;;;;;5130476;27;20513;-72
2021/06/08 11:43:51;;;;;;;13.10;12.00;;;23.00;99.90;;;;;;5135432;27;20453;-72
2021/06/08 11:46:27;;;;;;;13.38;12.00;;;22.90;99.90;;;;;;5134343;28;20505;-72
2021/06/08 11:49:06;;;;;;;13.95;12.65;;;22.80;99.90;;;;;;5134288;28;20855;-72
2021/06/08 11:51:38;;;;;;;13.17;11.87;;;22.80;99.90;;;;;;5134404;28;20512;-72
2021/06/08 11:54:09;;;;;;;13.05;11.85;;;22.70;99.90;;;;;;5133626;28;20446;-70
2021/06/08 11:57:04;;;;;;;13.63;12.38;;;22.70;99.90;;;;;;5132958;28;20445;-70
2021/06/08 11:59:32;;;;;;;12.45;11.35;;;22.90;99.90;;;;;;5133041;28;20780;-72
2021/06/08 12:02:00;;;;;;;11.60;10.60;;;22.90;99.90;;;;;;5133137;28;20423;-72
2021/06/08 12:04:29;;;;;;;11.88;10.77;;;23.10;99.90;;;;;;5133697;28;20454;-72
2021/06/08 12:07:01;;;;;;;12.10;11.00;;;23.50;99.90;;;;;;5134857;28;20454;-72
2021/06/08 12:09:30;;;;;;;11.73;10.65;;;24.10;99.90;;;;;;5134488;28;20433;-73
2021/06/08 12:11:58;;;;;;;11.00;10.00;;;24.70;99.90;;;;;;5134088;28;20430;-73
2021/06/08 12:14:27;;;;;;;10.85;9.85;;;25.20;99.90;;;;;;5134180;28;20410;-70
2021/06/08 12:16:55;;;;;;;10.38;9.07;;;25.70;99.90;;;;;;5133462;28;20812;-71
2021/06/08 12:19:28;;;;;;;10.00;9.10;;;26.20;99.90;;;;;;5133557;28;20559;-70
2021/06/08 12:21:56;;;;;;;10.40;9.30;;;26.70;99.90;;;;;;5130973;27;20441;-71
2021/06/08 12:24:23;;;;;;;11.65;10.55;;;27.30;99.90;;;;;;5133036;28;20509;-71
2021/06/08 12:27:08;;;;;;;9.70;8.75;;;27.40;99.90;;;;;;5132492;27;20434;-72
2021/06/08 12:29:51;;;;;;;11.75;10.45;;;27.30;99.90;;;;;;5133099;28;20441;-70
2021/06/08 12:32:18;;;;;;;12.37;11.17;;;27.10;99.90;;;;;;5132850;27;20444;-72
2021/06/08 12:34:49;;;;;;;11.48;10.48;;;26.80;99.90;;;;;;5135277;28;20411;-71
2021/06/08 12:37:22;;;;;;;11.88;10.77;;;25.90;99.90;;;;;;5133917;28;20426;-71
2021/06/08 12:39:52;;;;;;;11.35;10.25;;;25.50;99.90;;;;;;5133090;28;20411;-72
2021/06/08 12:42:21;;;;;;;11.13;10.13;;;25.30;99.90;;;;;;5131958;28;20433;-72
2021/06/08 12:44:48;;;;;;;20.53;12.03;;;25.50;99.90;;;;;;5130761;27;20503;-72
2021/06/08 12:47:15;;;;;;;11.45;9.63;;;25.90;99.90;;;;;;5131377;28;20419;-72